createdAt,value
2017-05-15T00:00:59.871Z,79.7
2017-05-15T00:02:02.211Z,79.3
2017-05-15T00:03:05.056Z,79.6
2017-05-15T00:04:07.902Z,79.7
2017-05-15T00:05:10.732Z,79.5
2017-05-15T00:06:13.576Z,79.9
2017-05-15T00:07:16.426Z,79.6
2017-05-15T00:08:18.767Z,79.8
2017-05-15T00:09:21.625Z,79.9
2017-05-15T00:10:24.727Z,79.8
2017-05-15T00:11:26.934Z,80
2017-05-15T00:12:30.155Z,79.9
2017-05-15T00:13:32.501Z,80.3
2017-05-15T00:14:35.209Z,79.9
2017-05-15T00:15:38.666Z,80.1
2017-05-15T00:16:41.013Z,79.8
2017-05-15T00:17:43.861Z,80
2017-05-15T00:18:46.705Z,80.3
2017-05-15T00:19:49.048Z,80.3
2017-05-15T00:20:52.192Z,80.3
2017-05-15T00:21:54.530Z,80.3
2017-05-15T00:22:57.366Z,80.6
2017-05-15T00:24:00.077Z,80.4
2017-05-15T00:25:02.923Z,80.6
2017-05-15T00:26:06.018Z,80.8
2017-05-15T00:27:08.358Z,80.7
2017-05-15T00:28:11.072Z,80.4
2017-05-15T00:29:13.920Z,80.6
2017-05-15T00:30:16.807Z,80.7
2017-05-15T00:31:19.957Z,80.5
2017-05-15T00:32:22.300Z,80.8
2017-05-15T00:33:25.145Z,80.9
2017-05-15T00:34:27.483Z,81
2017-05-15T00:35:30.358Z,80.8
2017-05-15T00:36:33.516Z,81
2017-05-15T00:37:35.853Z,80.9
2017-05-15T00:38:38.561Z,80.7
2017-05-15T00:39:41.401Z,81.2
2017-05-15T00:40:44.252Z,81.2
2017-05-15T00:41:47.401Z,81.3
2017-05-15T00:42:49.752Z,81.3
2017-05-15T00:43:52.598Z,81.4
2017-05-15T00:44:54.936Z,81.3
2017-05-15T00:45:57.647Z,81.4
2017-05-15T00:47:00.741Z,81.5
2017-05-15T00:48:03.584Z,81.5
2017-05-15T00:49:05.926Z,81.5
2017-05-15T00:50:08.776Z,81.3
2017-05-15T00:51:12.183Z,81.5
2017-05-15T00:52:14.874Z,81.4
2017-05-15T00:53:17.274Z,81.5
2017-05-15T00:54:19.617Z,81.4
2017-05-15T00:55:22.470Z,81.4
2017-05-15T00:56:25.315Z,81.5
2017-05-15T00:57:28.330Z,81.3
2017-05-15T00:58:30.666Z,81.4
2017-05-15T00:59:33.509Z,81.3
2017-05-15T01:00:36.394Z,81.5
2017-05-15T01:01:39.240Z,81.6
2017-05-15T01:02:41.883Z,81.4
2017-05-15T01:03:44.593Z,81.5
2017-05-15T01:04:46.982Z,81.5
2017-05-15T01:05:49.826Z,81.2
2017-05-15T01:06:52.667Z,81.4
2017-05-15T01:07:55.758Z,81.2
2017-05-15T01:08:58.100Z,81.3
2017-05-15T01:10:00.942Z,81.4
2017-05-15T01:11:03.785Z,81.3
2017-05-15T01:12:06.631Z,81.3
2017-05-15T01:13:09.645Z,81.4
2017-05-15T01:14:11.851Z,81.3
2017-05-15T01:15:14.697Z,81.3
2017-05-15T01:16:17.536Z,81.2
2017-05-15T01:17:19.877Z,81.1
2017-05-15T01:18:22.843Z,81.3
2017-05-15T01:20:28.153Z,81.2
2017-05-15T01:21:30.999Z,81.1
2017-05-15T01:22:33.844Z,81.2
2017-05-15T01:23:36.933Z,81
2017-05-15T01:24:39.140Z,81.1
2017-05-15T01:25:41.986Z,81
2017-05-15T01:26:44.827Z,81
2017-05-15T01:27:47.174Z,80.9
2017-05-15T01:28:50.276Z,81
2017-05-15T01:29:52.621Z,81
2017-05-15T01:30:55.461Z,81.1
2017-05-15T01:33:01.087Z,81.1
2017-05-15T01:34:04.241Z,80.8
2017-05-15T01:35:06.585Z,81
2017-05-15T01:36:09.428Z,80.9
2017-05-15T01:37:12.136Z,80.9
2017-05-15T01:38:14.477Z,80.8
2017-05-15T01:39:17.572Z,80.9
2017-05-15T01:40:20.416Z,80.8
2017-05-15T01:41:22.755Z,81
2017-05-15T01:42:25.614Z,81
2017-05-15T01:43:28.460Z,81
2017-05-15T01:44:31.556Z,81
2017-05-15T01:45:33.762Z,80.9
2017-05-15T01:46:36.475Z,80.7
2017-05-15T01:47:39.320Z,80.5
2017-05-15T01:49:44.878Z,80.7
2017-05-15T01:50:47.537Z,80.3
2017-05-15T01:52:52.651Z,80.5
2017-05-15T01:53:55.868Z,80.4
2017-05-15T01:54:58.463Z,80.2
2017-05-15T01:56:01.309Z,80.3
2017-05-15T01:57:03.887Z,80.8
2017-05-15T01:58:06.605Z,80.5
2017-05-15T01:59:09.445Z,80.2
2017-05-15T02:00:12.275Z,80.5
2017-05-15T02:01:14.989Z,80.4
2017-05-15T02:02:17.333Z,80.5
2017-05-15T02:03:20.176Z,80.4
2017-05-15T02:04:22.888Z,80.5
2017-05-15T02:05:25.852Z,80.6
2017-05-15T02:06:28.193Z,80.5
2017-05-15T02:07:30.905Z,80.3
2017-05-15T02:08:33.988Z,80.5
2017-05-15T02:09:36.194Z,80.4
2017-05-15T02:10:39.291Z,80.4
2017-05-15T02:11:42.194Z,80.2
2017-05-15T02:12:44.539Z,80.1
2017-05-15T02:13:47.386Z,80.1
2017-05-15T02:14:50.094Z,80.4
2017-05-15T02:15:53.186Z,80.5
2017-05-15T02:16:55.589Z,80.6
2017-05-15T02:17:58.304Z,80.6
2017-05-15T02:19:01.030Z,80.6
2017-05-15T02:20:03.943Z,80.6
2017-05-15T02:21:06.540Z,80.6
2017-05-15T02:22:09.249Z,80.4
2017-05-15T02:23:12.146Z,80.4
2017-05-15T02:24:14.488Z,80.5
2017-05-15T02:25:17.198Z,80.6
2017-05-15T02:26:20.290Z,80.5
2017-05-15T02:27:22.627Z,80.4
2017-05-15T02:28:25.340Z,80.7
2017-05-15T02:29:28.187Z,80.6
2017-05-15T02:30:31.033Z,80.4
2017-05-15T02:31:34.749Z,80.7
2017-05-15T02:32:36.326Z,80.9
2017-05-15T02:33:39.741Z,80.9
2017-05-15T02:34:42.088Z,80.5
2017-05-15T02:35:44.426Z,80.6
2017-05-15T02:36:47.520Z,80.7
2017-05-15T02:37:49.861Z,80.6
2017-05-15T02:38:52.569Z,80.9
2017-05-15T02:39:55.823Z,80.9
2017-05-15T02:40:58.162Z,81
2017-05-15T02:42:01.260Z,81.1
2017-05-15T02:43:03.601Z,81
2017-05-15T02:44:06.450Z,81.1
2017-05-15T02:45:08.793Z,81.1
2017-05-15T02:46:11.518Z,80.9
2017-05-15T02:47:14.676Z,81.1
2017-05-15T02:48:17.018Z,81.2
2017-05-15T02:49:19.869Z,80.9
2017-05-15T02:50:22.724Z,80.7
2017-05-15T02:51:25.086Z,80.9
2017-05-15T02:52:28.185Z,80.9
2017-05-15T02:53:30.536Z,80.8
2017-05-15T02:54:33.385Z,80.7
2017-05-15T02:55:36.095Z,80.7
2017-05-15T02:56:38.810Z,80.8
2017-05-15T02:57:41.972Z,80.9
2017-05-15T02:58:44.324Z,80.6
2017-05-15T02:59:46.901Z,80.8
2017-05-15T03:00:49.754Z,80.6
2017-05-15T03:01:52.607Z,80.5
2017-05-15T03:02:55.257Z,80.6
2017-05-15T03:03:58.107Z,80.7
2017-05-15T03:05:00.455Z,80.6
2017-05-15T03:06:03.173Z,80.6
2017-05-15T03:08:09.055Z,80.8
2017-05-15T03:09:11.132Z,80.7
2017-05-15T03:10:13.983Z,80.8
2017-05-15T03:11:16.836Z,80.8
2017-05-15T03:12:19.680Z,80.6
2017-05-15T03:13:22.833Z,80.7
2017-05-15T03:14:25.180Z,80.6
2017-05-15T03:15:27.894Z,80.7
2017-05-15T03:16:30.249Z,80.7
2017-05-15T03:17:33.105Z,80.5
2017-05-15T03:18:36.121Z,80.7
2017-05-15T03:19:38.701Z,80.6
2017-05-15T03:20:41.104Z,80.6
2017-05-15T03:21:43.996Z,80.5
2017-05-15T03:22:46.847Z,80.8
2017-05-15T03:23:49.944Z,81
2017-05-15T03:24:52.291Z,80.8
2017-05-15T03:25:54.637Z,80.9
2017-05-15T03:26:57.485Z,81.1
2017-05-15T03:28:00.335Z,81
2017-05-15T03:29:03.299Z,80.9
2017-05-15T03:30:05.651Z,80.7
2017-05-15T03:31:08.500Z,80.9
2017-05-15T03:32:11.350Z,80.8
2017-05-15T03:33:14.060Z,80.7
2017-05-15T03:34:16.705Z,80.7
2017-05-15T03:35:19.052Z,80.8
2017-05-15T03:36:21.898Z,80.8
2017-05-15T03:37:24.610Z,80.8
2017-05-15T03:38:27.456Z,80.9
2017-05-15T03:39:30.558Z,80.7
2017-05-15T03:40:32.963Z,80.8
2017-05-15T03:41:35.326Z,80.6
2017-05-15T03:42:38.044Z,80.9
2017-05-15T03:43:40.895Z,81.1
2017-05-15T03:44:43.995Z,80.9
2017-05-15T03:45:46.904Z,80.7
2017-05-15T03:46:49.255Z,80.4
2017-05-15T03:47:51.655Z,80.5
2017-05-15T03:48:54.377Z,80.5
2017-05-15T03:50:59.941Z,80
2017-05-15T03:52:02.346Z,80
2017-05-15T03:53:05.196Z,79.9
2017-05-15T03:54:08.046Z,79.5
2017-05-15T03:55:10.893Z,79.1
2017-05-15T03:56:13.491Z,79.1
2017-05-15T03:57:16.341Z,79.1
2017-05-15T03:58:18.694Z,78.7
2017-05-15T03:59:21.415Z,79
2017-05-15T04:00:24.266Z,78.7
2017-05-15T04:01:27.419Z,78.6
2017-05-15T04:02:29.774Z,78.7
2017-05-15T04:03:32.688Z,78.3
2017-05-15T04:04:35.036Z,78.1
2017-05-15T04:05:37.895Z,78
2017-05-15T04:06:41.043Z,78
2017-05-15T04:07:43.463Z,78.3
2017-05-15T04:08:46.312Z,78.4
2017-05-15T04:09:49.163Z,78.6
2017-05-15T04:10:51.511Z,78.9
2017-05-15T04:11:54.612Z,78.8
2017-05-15T04:12:56.952Z,78.8
2017-05-15T04:13:59.794Z,79
2017-05-15T04:15:02.646Z,79
2017-05-15T04:16:05.499Z,79
2017-05-15T04:17:07.968Z,79.1
2017-05-15T04:18:10.692Z,79.2
2017-05-15T04:19:13.546Z,78.9
2017-05-15T04:20:16.390Z,78.8
2017-05-15T04:21:18.733Z,78.6
2017-05-15T04:22:21.885Z,78.9
2017-05-15T04:23:24.099Z,79
2017-05-15T04:24:27.181Z,78.9
2017-05-15T04:25:29.895Z,78.8
2017-05-15T04:26:32.609Z,78.7
2017-05-15T04:28:38.116Z,78.2
2017-05-15T04:30:43.374Z,77.7
2017-05-15T04:31:46.221Z,77.5
2017-05-15T04:32:49.066Z,77
2017-05-15T04:33:52.222Z,76.6
2017-05-15T04:34:54.564Z,76.7
2017-05-15T04:35:57.416Z,77
2017-05-15T04:36:59.758Z,76.9
2017-05-15T04:38:02.487Z,77.2
2017-05-15T04:40:08.245Z,77.1
2017-05-15T04:41:11.092Z,77.5
2017-05-15T04:42:13.432Z,77.3
2017-05-15T04:43:16.517Z,77.7
2017-05-15T04:44:18.915Z,77.8
2017-05-15T04:45:22.389Z,78.1
2017-05-15T04:46:24.736Z,78.1
2017-05-15T04:47:28.172Z,78.2
2017-05-15T04:48:30.013Z,78.2
2017-05-15T04:50:36.021Z,78.3
2017-05-15T04:51:38.104Z,77.8
2017-05-15T04:52:40.950Z,77.4
2017-05-15T04:53:43.799Z,76.7
2017-05-15T04:54:46.646Z,76.1
2017-05-15T04:55:49.800Z,75.8
2017-05-15T04:56:52.703Z,75.5
2017-05-15T04:57:55.047Z,75.1
2017-05-15T04:58:57.445Z,74.4
2017-05-15T05:00:00.298Z,74.4
2017-05-15T05:01:03.260Z,73.5
2017-05-15T05:02:05.704Z,73.9
2017-05-15T05:03:08.417Z,72.9
2017-05-15T05:04:11.284Z,72.7
2017-05-15T05:05:14.133Z,72.6
2017-05-15T05:06:17.285Z,72
2017-05-15T05:07:19.627Z,72.3
2017-05-15T05:08:22.341Z,71.2
2017-05-15T05:10:27.973Z,71.3
2017-05-15T05:11:31.072Z,70.9
2017-05-15T05:12:33.919Z,70.7
2017-05-15T05:13:36.637Z,70.7
2017-05-15T05:14:39.214Z,70.2
2017-05-15T05:15:42.120Z,69.9
2017-05-15T05:16:45.637Z,69.5
2017-05-15T05:17:47.483Z,70
2017-05-15T05:18:50.337Z,69.3
2017-05-15T05:19:53.187Z,69.3
2017-05-15T05:20:55.904Z,69
2017-05-15T05:21:59.375Z,68.6
2017-05-15T05:23:01.722Z,68.4
2017-05-15T05:24:04.567Z,68.4
2017-05-15T05:25:07.418Z,68.5
2017-05-15T05:27:13.477Z,67.6
2017-05-15T05:28:15.825Z,67.6
2017-05-15T05:29:18.730Z,66.9
2017-05-15T05:30:21.629Z,67.1
2017-05-15T05:31:24.477Z,67.5
2017-05-15T05:32:28.139Z,66.9
2017-05-15T05:33:29.982Z,66
2017-05-15T05:34:32.757Z,66.7
2017-05-15T05:35:35.600Z,66.2
2017-05-15T05:36:38.446Z,66.1
2017-05-15T05:37:41.598Z,65.8
2017-05-15T05:38:43.943Z,65.7
2017-05-15T05:39:46.793Z,64.9
2017-05-15T05:40:50.009Z,64.8
2017-05-15T05:41:52.858Z,63.3
2017-05-15T05:42:55.959Z,64.1
2017-05-15T05:43:58.300Z,63.2
2017-05-15T05:45:01.149Z,63.5
2017-05-15T05:46:04.001Z,63
2017-05-15T05:47:06.848Z,62.8
2017-05-15T05:48:09.934Z,60.9
2017-05-15T05:49:12.281Z,62.1
2017-05-15T05:50:15.186Z,60.9
2017-05-15T05:51:17.903Z,60.6
2017-05-15T05:52:21.257Z,61.7
2017-05-15T05:53:24.405Z,61
2017-05-15T05:54:26.763Z,60.7
2017-05-15T05:55:29.388Z,60.4
2017-05-15T05:57:35.152Z,60.1
2017-05-15T05:58:38.761Z,59.8
2017-05-15T05:59:41.110Z,59.5
2017-05-15T06:00:43.960Z,59.2
2017-05-15T06:01:46.814Z,58.3
2017-05-15T06:02:49.665Z,59.4
2017-05-15T06:03:52.768Z,58.2
2017-05-15T06:04:55.526Z,58.5
2017-05-15T06:05:58.371Z,58.3
2017-05-15T06:07:01.276Z,59.6
2017-05-15T06:08:03.992Z,58.9
2017-05-15T06:09:06.958Z,60.4
2017-05-15T06:10:09.672Z,60.7
2017-05-15T06:11:12.892Z,60.9
2017-05-15T06:12:15.468Z,60.3
2017-05-15T06:13:18.685Z,60.3
2017-05-15T06:14:21.788Z,61.7
2017-05-15T06:15:24.138Z,61.3
2017-05-15T06:16:27.357Z,61.6
2017-05-15T06:17:30.209Z,61.6
2017-05-15T06:18:33.060Z,61.7
2017-05-15T06:19:36.209Z,61.8
2017-05-15T06:20:38.556Z,59.9
2017-05-15T06:21:41.409Z,60
2017-05-15T06:22:44.262Z,60
2017-05-15T06:23:47.109Z,61
2017-05-15T06:24:50.258Z,60.5
2017-05-15T06:25:53.112Z,61.1
2017-05-15T06:26:55.962Z,61.2
2017-05-15T06:27:58.678Z,60.2
2017-05-15T06:29:01.531Z,61
2017-05-15T06:30:04.691Z,61.1
2017-05-15T06:31:07.035Z,61.4
2017-05-15T06:32:09.743Z,60.1
2017-05-15T06:33:13.091Z,60.8
2017-05-15T06:34:15.938Z,61.4
2017-05-15T06:35:19.042Z,62.1
2017-05-15T06:37:24.303Z,61.1
2017-05-15T06:38:27.151Z,61.7
2017-05-15T06:39:29.994Z,61.4
2017-05-15T06:40:33.658Z,62.2
2017-05-15T06:41:36.008Z,62.2
2017-05-15T06:42:38.732Z,62.3
2017-05-15T06:43:41.578Z,62.7
2017-05-15T06:44:44.427Z,63.1
2017-05-15T06:45:47.446Z,63.5
2017-05-15T06:46:50.296Z,62.8
2017-05-15T06:47:52.646Z,64
2017-05-15T06:48:56.055Z,63.9
2017-05-15T06:49:58.277Z,64
2017-05-15T06:51:01.889Z,64.5
2017-05-15T06:53:07.147Z,64.5
2017-05-15T06:54:09.862Z,64.7
2017-05-15T06:55:12.577Z,64.9
2017-05-15T06:56:16.283Z,65
2017-05-15T06:57:18.634Z,64.2
2017-05-15T06:58:21.485Z,63.7
2017-05-15T06:59:24.890Z,64.7
2017-05-15T07:00:26.740Z,64.9
2017-05-15T07:01:29.847Z,65
2017-05-15T07:02:32.694Z,64.1
2017-05-15T07:03:35.538Z,64.5
2017-05-15T07:04:38.385Z,63.9
2017-05-15T07:05:41.238Z,64.3
2017-05-15T07:06:44.345Z,64
2017-05-15T07:07:46.687Z,64.5
2017-05-15T07:08:50.098Z,64.1
2017-05-15T07:09:52.440Z,64.6
2017-05-15T07:10:55.292Z,64.4
2017-05-15T07:11:58.256Z,64.9
2017-05-15T07:13:00.975Z,64.8
2017-05-15T07:14:03.259Z,65.1
2017-05-15T07:15:06.476Z,65.8
2017-05-15T07:16:09.331Z,65.5
2017-05-15T07:17:12.431Z,65.5
2017-05-15T07:18:14.644Z,66.1
2017-05-15T07:19:17.491Z,66
2017-05-15T07:20:20.343Z,66.2
2017-05-15T07:21:23.226Z,65.8
2017-05-15T07:22:26.327Z,66.2
2017-05-15T07:23:28.670Z,65.9
2017-05-15T07:24:31.517Z,65.3
2017-05-15T07:25:34.366Z,65.5
2017-05-15T07:26:37.293Z,64.7
2017-05-15T07:27:40.042Z,64.7
2017-05-15T07:28:42.780Z,64.3
2017-05-15T07:29:45.635Z,65
2017-05-15T07:30:48.351Z,64.7
2017-05-15T07:31:51.200Z,65.3
2017-05-15T07:32:54.305Z,64.7
2017-05-15T07:33:57.159Z,64.4
2017-05-15T07:34:59.509Z,64.8
2017-05-15T07:36:02.357Z,64.6
2017-05-15T07:37:05.444Z,63.9
2017-05-15T07:38:08.595Z,64.2
2017-05-15T07:39:10.672Z,63.7
2017-05-15T07:40:14.021Z,64.1
2017-05-15T07:41:16.367Z,63.3
2017-05-15T07:42:19.212Z,64.3
2017-05-15T07:43:22.362Z,63.6
2017-05-15T07:45:27.623Z,64.2
2017-05-15T07:46:30.528Z,64.1
2017-05-15T07:47:33.613Z,64.3
2017-05-15T07:48:36.267Z,64.8
2017-05-15T07:49:38.851Z,64.7
2017-05-15T07:50:41.708Z,64.2
2017-05-15T07:51:44.557Z,64.2
2017-05-15T07:52:47.409Z,64.5
2017-05-15T07:53:50.513Z,65
2017-05-15T07:54:53.355Z,64.9
2017-05-15T07:55:55.702Z,65.1
2017-05-15T07:56:58.550Z,64.9
2017-05-15T07:58:01.462Z,64.8
2017-05-15T07:59:04.423Z,64.9
2017-05-15T08:00:07.830Z,64.7
2017-05-15T08:01:10.175Z,65.2
2017-05-15T08:02:13.035Z,64.9
2017-05-15T08:03:15.391Z,64.8
2017-05-15T08:04:18.359Z,64.8
2017-05-15T08:05:21.211Z,65.3
2017-05-15T08:06:24.061Z,65.6
2017-05-15T08:07:26.912Z,65.4
2017-05-15T08:08:29.840Z,65.8
2017-05-15T08:09:33.497Z,64.4
2017-05-15T08:10:35.343Z,64.8
2017-05-15T08:11:38.197Z,65.2
2017-05-15T08:12:41.045Z,64.6
2017-05-15T08:13:43.892Z,64.3
2017-05-15T08:14:46.988Z,63.7
2017-05-15T08:15:49.332Z,63.1
2017-05-15T08:16:52.043Z,63.5
2017-05-15T08:17:54.893Z,63.4
2017-05-15T08:18:57.739Z,63.4
2017-05-15T08:20:00.842Z,64.5
2017-05-15T08:21:03.189Z,64.6
2017-05-15T08:22:06.041Z,64.7
2017-05-15T08:23:09.262Z,65.2
2017-05-15T08:24:11.846Z,64.5
2017-05-15T08:25:14.953Z,65.6
2017-05-15T08:26:17.359Z,66
2017-05-15T08:27:20.212Z,65.3
2017-05-15T08:28:23.631Z,66.2
2017-05-15T08:29:25.976Z,66
2017-05-15T08:30:29.651Z,64.6
2017-05-15T08:31:31.502Z,63.4
2017-05-15T08:32:34.356Z,63.6
2017-05-15T08:33:37.206Z,62.5
2017-05-15T08:34:40.054Z,63.4
2017-05-15T08:35:43.071Z,63.1
2017-05-15T08:36:45.788Z,63.2
2017-05-15T08:37:48.642Z,63.7
2017-05-15T08:38:51.492Z,64.2
2017-05-15T08:39:54.341Z,63.8
2017-05-15T08:40:56.941Z,64.3
2017-05-15T08:41:59.789Z,63.9
2017-05-15T08:43:02.690Z,63.4
2017-05-15T08:44:05.401Z,63.1
2017-05-15T08:45:07.977Z,62.9
2017-05-15T08:46:11.087Z,63.7
2017-05-15T08:47:13.940Z,63.8
2017-05-15T08:48:16.655Z,63.2
2017-05-15T08:49:19.506Z,63.2
2017-05-15T08:50:22.225Z,62
2017-05-15T08:51:25.184Z,62.6
2017-05-15T08:52:27.898Z,62.5
2017-05-15T08:53:30.475Z,61.9
2017-05-15T08:54:33.689Z,61.4
2017-05-15T08:55:36.535Z,61.9
2017-05-15T08:56:39.503Z,61.9
2017-05-15T08:57:41.908Z,61.4
2017-05-15T08:58:44.811Z,61.1
2017-05-15T08:59:47.656Z,60.6
2017-05-15T09:00:50.372Z,60.4
2017-05-15T09:01:53.769Z,60.4
2017-05-15T09:02:56.115Z,59.7
2017-05-15T09:03:58.829Z,60
2017-05-15T09:05:02.179Z,59.3
2017-05-15T09:06:05.032Z,60.2
2017-05-15T09:07:08.134Z,61.5
2017-05-15T09:08:11.037Z,61
2017-05-15T09:09:13.301Z,61.2
2017-05-15T09:10:16.018Z,61.2
2017-05-15T09:11:18.871Z,61.2
2017-05-15T09:12:21.974Z,61.9
2017-05-15T09:13:24.823Z,62.2
2017-05-15T09:14:27.727Z,60.9
2017-05-15T09:15:30.581Z,61.1
2017-05-15T09:16:33.429Z,61.3
2017-05-15T09:17:36.579Z,61.5
2017-05-15T09:18:38.791Z,60.9
2017-05-15T09:19:41.638Z,60
2017-05-15T09:20:44.991Z,59
2017-05-15T09:22:50.868Z,58
2017-05-15T09:23:54.155Z,56.5
2017-05-15T09:24:56.513Z,54.9
2017-05-15T09:25:59.365Z,55.9
2017-05-15T09:27:02.213Z,53.8
2017-05-15T09:28:05.191Z,54
2017-05-15T09:29:07.901Z,54.6
2017-05-15T09:31:14.034Z,53.6
2017-05-15T09:32:16.883Z,52.9
2017-05-15T09:33:20.029Z,51.1
2017-05-15T09:34:22.375Z,50.9
2017-05-15T09:35:25.728Z,51.2
2017-05-15T09:36:28.571Z,48.5
2017-05-15T09:37:31.151Z,49.2
2017-05-15T09:38:34.804Z,48.5
2017-05-15T09:39:37.149Z,48.9
2017-05-15T09:40:40.235Z,47.5
2017-05-15T09:41:43.085Z,48.5
2017-05-15T09:42:46.448Z,48.3
2017-05-15T09:43:49.597Z,48.9
2017-05-15T09:44:52.449Z,48.9
2017-05-15T09:45:55.295Z,49.2
2017-05-15T09:46:58.644Z,46.2
2017-05-15T09:48:01.496Z,48.6
2017-05-15T09:49:04.646Z,46.7
2017-05-15T09:50:07.358Z,45.8
2017-05-15T09:51:10.576Z,45.9
2017-05-15T09:52:13.930Z,44.9
2017-05-15T09:53:16.776Z,45.8
2017-05-15T09:54:19.931Z,45.7
2017-05-15T09:55:23.161Z,46.8
2017-05-15T09:56:25.880Z,47.8
2017-05-15T09:57:29.097Z,48.9
2017-05-15T09:58:32.315Z,49.5
2017-05-15T09:59:35.284Z,49.8
2017-05-15T10:00:38.128Z,50
2017-05-15T10:01:41.212Z,51.2
2017-05-15T10:02:44.562Z,51.4
2017-05-15T10:03:47.408Z,51.5
2017-05-15T10:04:51.012Z,51
2017-05-15T10:06:56.774Z,49.9
2017-05-15T10:07:59.634Z,49
2017-05-15T10:09:02.986Z,47.1
2017-05-15T10:10:05.956Z,47.2
2017-05-15T10:11:08.800Z,46.9
2017-05-15T10:12:11.647Z,46.1
2017-05-15T10:13:14.860Z,46.8
2017-05-15T10:14:17.710Z,47
2017-05-15T10:15:20.860Z,47.1
2017-05-15T10:16:23.571Z,47.2
2017-05-15T10:17:26.920Z,47
2017-05-15T10:18:29.822Z,47.2
2017-05-15T10:19:32.539Z,46.9
2017-05-15T10:20:35.694Z,47.9
2017-05-15T10:21:38.544Z,49.1
2017-05-15T10:22:41.296Z,49.5
2017-05-15T10:23:44.155Z,49.5
2017-05-15T10:24:47.511Z,49.4
2017-05-15T10:25:50.477Z,50.2
2017-05-15T10:26:53.326Z,51.1
2017-05-15T10:27:56.172Z,51
2017-05-15T10:28:59.025Z,51.2
2017-05-15T10:30:01.880Z,51
2017-05-15T10:31:05.029Z,51.4
2017-05-15T10:32:07.377Z,50.4
2017-05-15T10:33:10.727Z,51.5
2017-05-15T10:34:13.577Z,51.9
2017-05-15T10:35:16.293Z,51.8
2017-05-15T10:36:19.257Z,52.3
2017-05-15T10:37:22.105Z,52.9
2017-05-15T10:39:27.862Z,53.7
2017-05-15T10:40:30.575Z,53
2017-05-15T10:41:33.682Z,52.7
2017-05-15T10:42:36.528Z,53.2
2017-05-15T10:43:39.380Z,52.7
2017-05-15T10:44:42.227Z,53.2
2017-05-15T10:45:45.074Z,53.5
2017-05-15T10:46:48.218Z,51.9
2017-05-15T10:47:50.559Z,52.6
2017-05-15T10:48:53.407Z,53.4
2017-05-15T10:49:56.256Z,53.9
2017-05-15T10:50:59.102Z,54.4
2017-05-15T10:52:02.258Z,54.1
2017-05-15T10:53:05.104Z,53.2
2017-05-15T10:54:07.814Z,52.5
2017-05-15T10:55:11.028Z,52.5
2017-05-15T10:56:13.745Z,49.1
2017-05-15T10:57:16.751Z,50.4
2017-05-15T10:58:19.466Z,49.1
2017-05-15T10:59:22.181Z,49.7
2017-05-15T11:00:25.035Z,50.2
2017-05-15T11:01:27.753Z,50.6
2017-05-15T11:02:30.904Z,47.6
2017-05-15T11:03:33.752Z,43.9
2017-05-15T11:04:36.471Z,45.4
2017-05-15T11:05:39.353Z,46.5
2017-05-15T11:06:42.066Z,46.6
2017-05-15T11:07:45.585Z,46
2017-05-15T11:08:47.943Z,46
2017-05-15T11:09:50.797Z,45.6
2017-05-15T11:10:53.517Z,46.4
2017-05-15T11:11:56.734Z,45.8
2017-05-15T11:12:59.705Z,46.2
2017-05-15T11:14:02.567Z,44.3
2017-05-15T11:16:07.820Z,45.9
2017-05-15T11:17:10.669Z,44
2017-05-15T11:18:14.319Z,43.6
2017-05-15T11:19:16.529Z,43.5
2017-05-15T11:20:19.384Z,43.8
2017-05-15T11:21:22.236Z,43.7
2017-05-15T11:22:25.083Z,43.4
2017-05-15T11:23:28.182Z,43.7
2017-05-15T11:25:33.802Z,44.4
2017-05-15T11:26:36.384Z,43.6
2017-05-15T11:27:39.739Z,44.6
2017-05-15T11:28:42.841Z,45.9
2017-05-15T11:29:45.186Z,47.3
2017-05-15T11:30:48.034Z,46
2017-05-15T11:31:50.879Z,46.5
2017-05-15T11:32:53.596Z,46.7
2017-05-15T11:33:56.699Z,47.1
2017-05-15T11:34:59.550Z,47.1
2017-05-15T11:36:02.401Z,47.8
2017-05-15T11:37:05.251Z,48.9
2017-05-15T11:39:11.262Z,48.1
2017-05-15T11:40:13.475Z,47.5
2017-05-15T11:41:16.321Z,47.5
2017-05-15T11:42:19.541Z,47.8
2017-05-15T11:43:22.392Z,48
2017-05-15T11:44:25.547Z,49.4
2017-05-15T11:45:27.900Z,48.9
2017-05-15T11:46:30.614Z,49.1
2017-05-15T11:47:33.461Z,49.8
2017-05-15T11:48:36.319Z,50.2
2017-05-15T11:49:39.428Z,50.4
2017-05-15T11:50:42.286Z,50.7
2017-05-15T11:51:45.136Z,50.5
2017-05-15T11:52:47.986Z,51.3
2017-05-15T11:53:50.835Z,51.5
2017-05-15T11:54:53.721Z,52.1
2017-05-15T11:55:56.575Z,51.6
2017-05-15T11:56:59.291Z,51.9
2017-05-15T11:58:02.147Z,51.2
2017-05-15T11:59:05.228Z,51.5
2017-05-15T12:00:08.378Z,52.3
2017-05-15T12:01:10.723Z,51.4
2017-05-15T12:02:13.571Z,51.9
2017-05-15T12:03:16.418Z,51.4
2017-05-15T12:04:19.268Z,51.7
2017-05-15T12:05:22.368Z,51.7
2017-05-15T12:06:24.717Z,51.8
2017-05-15T12:07:27.564Z,50.6
2017-05-15T12:08:30.422Z,49.8
2017-05-15T12:09:33.273Z,48.8
2017-05-15T12:10:36.417Z,49.1
2017-05-15T12:11:39.133Z,47
2017-05-15T12:12:41.986Z,47.5
2017-05-15T12:13:44.890Z,46.7
2017-05-15T12:14:47.741Z,46.8
2017-05-15T12:15:50.841Z,46.7
2017-05-15T12:16:53.182Z,46.4
2017-05-15T12:17:56.033Z,45.2
2017-05-15T12:18:58.879Z,45.7
2017-05-15T12:20:02.101Z,46.8
2017-05-15T12:21:05.066Z,46.8
2017-05-15T12:22:07.407Z,46.9
2017-05-15T12:24:13.535Z,46
2017-05-15T12:25:16.246Z,45.3
2017-05-15T12:26:19.345Z,46.4
2017-05-15T12:27:21.689Z,46.5
2017-05-15T12:28:24.402Z,46.9
2017-05-15T12:30:30.160Z,48.1
2017-05-15T12:31:33.258Z,47.3
2017-05-15T12:32:36.103Z,47.1
2017-05-15T12:33:38.813Z,46.9
2017-05-15T12:34:41.662Z,47.1
2017-05-15T12:36:47.672Z,47.8
2017-05-15T12:37:50.519Z,47.9
2017-05-15T12:38:53.363Z,48.2
2017-05-15T12:39:56.207Z,47.5
2017-05-15T12:40:59.053Z,48.1
2017-05-15T12:42:02.153Z,46.9
2017-05-15T12:43:04.498Z,45.6
2017-05-15T12:44:07.721Z,46
2017-05-15T12:45:10.434Z,45.8
2017-05-15T12:46:13.284Z,45.1
2017-05-15T12:47:16.990Z,46.1
2017-05-15T12:48:18.828Z,46.6
2017-05-15T12:49:21.675Z,46.4
2017-05-15T12:50:24.525Z,46.1
2017-05-15T12:51:27.370Z,46.4
2017-05-15T12:52:30.469Z,45.6
2017-05-15T12:53:33.321Z,45.3
2017-05-15T12:54:36.037Z,46.4
2017-05-15T12:55:38.884Z,46
2017-05-15T12:56:41.594Z,46.1
2017-05-15T12:57:44.692Z,46.3
2017-05-15T12:58:47.543Z,47.6
2017-05-15T12:59:50.394Z,46.9
2017-05-15T13:00:53.244Z,45.6
2017-05-15T13:01:56.096Z,46.3
2017-05-15T13:02:59.193Z,47
2017-05-15T13:04:01.542Z,45.8
2017-05-15T13:05:04.394Z,45.5
2017-05-15T13:06:07.744Z,46.2
2017-05-15T13:07:10.457Z,46.9
2017-05-15T13:08:13.556Z,46.7
2017-05-15T13:09:15.761Z,46.3
2017-05-15T13:10:19.114Z,46.9
2017-05-15T13:11:21.827Z,46.1
2017-05-15T13:12:24.678Z,46.4
2017-05-15T13:13:27.778Z,47.2
2017-05-15T13:14:30.634Z,46
2017-05-15T13:15:33.479Z,46.7
2017-05-15T13:16:36.331Z,46.8
2017-05-15T13:17:39.178Z,45.4
2017-05-15T13:18:42.281Z,45.7
2017-05-15T13:19:44.997Z,45.3
2017-05-15T13:20:47.846Z,45.2
2017-05-15T13:21:50.244Z,45.5
2017-05-15T13:22:53.467Z,45.5
2017-05-15T13:23:56.621Z,46.2
2017-05-15T13:24:59.006Z,45.5
2017-05-15T13:26:01.723Z,45.7
2017-05-15T13:27:04.573Z,45.5
2017-05-15T13:28:07.788Z,44.8
2017-05-15T13:29:10.940Z,45.2
2017-05-15T13:30:13.148Z,46.2
2017-05-15T13:31:16.233Z,46.2
2017-05-15T13:32:18.972Z,47.5
2017-05-15T13:33:21.818Z,47.4
2017-05-15T13:34:24.929Z,46.6
2017-05-15T13:35:27.799Z,46.3
2017-05-15T13:36:30.643Z,45.8
2017-05-15T13:38:36.405Z,45.7
2017-05-15T13:39:39.290Z,45.8
2017-05-15T13:40:42.135Z,44.7
2017-05-15T13:41:44.987Z,44.8
2017-05-15T13:42:47.840Z,45.3
2017-05-15T13:43:50.421Z,44.8
2017-05-15T13:44:53.570Z,45.4
2017-05-15T13:45:56.285Z,45.1
2017-05-15T13:46:59.135Z,45.5
2017-05-15T13:48:01.982Z,46.3
2017-05-15T13:49:04.896Z,45.8
2017-05-15T13:50:07.862Z,45.4
2017-05-15T13:51:10.572Z,46.1
2017-05-15T13:52:13.432Z,46.7
2017-05-15T13:53:16.145Z,46.8
2017-05-15T13:54:19.364Z,46.4
2017-05-15T13:55:22.470Z,47
2017-05-15T13:56:24.816Z,45.9
2017-05-15T13:57:27.721Z,46.4
2017-05-15T13:58:30.564Z,45.6
2017-05-15T13:59:33.146Z,46.2
2017-05-15T14:00:36.752Z,46.7
2017-05-15T14:01:39.096Z,47.6
2017-05-15T14:02:41.946Z,47.6
2017-05-15T14:03:44.795Z,47.2
2017-05-15T14:04:47.509Z,47.2
2017-05-15T14:05:50.983Z,47.6
2017-05-15T14:06:53.331Z,47.5
2017-05-15T14:07:56.184Z,47.9
2017-05-15T14:08:59.033Z,48.5
2017-05-15T14:10:02.115Z,48.2
2017-05-15T14:12:07.989Z,46.8
2017-05-15T14:13:10.436Z,47.2
2017-05-15T14:14:13.186Z,47.3
2017-05-15T14:15:15.902Z,47.2
2017-05-15T14:16:19.258Z,46.5
2017-05-15T14:17:22.359Z,46.4
2017-05-15T14:18:24.750Z,46.9
2017-05-15T14:19:27.592Z,47.7
2017-05-15T14:20:30.441Z,46.6
2017-05-15T14:21:33.293Z,46.8
2017-05-15T14:22:36.443Z,47.2
2017-05-15T14:23:39.153Z,47.7
2017-05-15T14:24:42.004Z,46.8
2017-05-15T14:25:44.851Z,45.5
2017-05-15T14:26:47.704Z,45.8
2017-05-15T14:27:50.815Z,44.5
2017-05-15T14:28:53.533Z,44.8
2017-05-15T14:29:56.385Z,45.6
2017-05-15T14:30:59.230Z,45.8